Map

Track Data

SID SEASON NUMBER BASIN SUBBASIN NAME ISO_TIME NATURE LAT LON WMO_WIND WMO_PRES WMO_AGENCY TRACK_TYPE DIST2LAND LANDFALL IFLAG USA_AGENCY USA_ATCF_ID USA_LAT USA_LON USA_RECORD USA_STATUS USA_WIND USA_PRES USA_SSHS USA_R34_NE USA_R34_SE USA_R34_SW USA_R34_NW USA_R50_NE USA_R50_SE USA_R50_SW USA_R50_NW USA_R64_NE USA_R64_SE USA_R64_SW USA_R64_NW USA_POCI USA_ROCI USA_RMW USA_EYE TOKYO_LAT TOKYO_LON TOKYO_GRADE TOKYO_WIND TOKYO_PRES TOKYO_R50_DIR TOKYO_R50_LONG TOKYO_R50_SHORT TOKYO_R30_DIR TOKYO_R30_LONG TOKYO_R30_SHORT TOKYO_LAND CMA_LAT CMA_LON CMA_CAT CMA_WIND CMA_PRES HKO_LAT HKO_LON HKO_CAT HKO_WIND HKO_PRES NEWDELHI_LAT NEWDELHI_LON NEWDELHI_GRADE NEWDELHI_WIND NEWDELHI_PRES NEWDELHI_CI NEWDELHI_DP NEWDELHI_POCI REUNION_LAT REUNION_LON REUNION_TYPE REUNION_WIND REUNION_PRES REUNION_TNUM REUNION_CI REUNION_RMW REUNION_R34_NE REUNION_R34_SE REUNION_R34_SW REUNION_R34_NW REUNION_R50_NE REUNION_R50_SE REUNION_R50_SW REUNION_R50_NW REUNION_R64_NE REUNION_R64_SE REUNION_R64_SW REUNION_R64_NW BOM_LAT BOM_LON BOM_TYPE BOM_WIND BOM_PRES BOM_TNUM BOM_CI BOM_RMW BOM_R34_NE BOM_R34_SE BOM_R34_SW BOM_R34_NW BOM_R50_NE BOM_R50_SE BOM_R50_SW BOM_R50_NW BOM_R64_NE BOM_R64_SE BOM_R64_SW BOM_R64_NW BOM_ROCI BOM_POCI BOM_EYE BOM_POS_METHOD BOM_PRES_METHOD NADI_LAT NADI_LON NADI_CAT NADI_WIND NADI_PRES WELLINGTON_LAT WELLINGTON_LON WELLINGTON_WIND WELLINGTON_PRES DS824_LAT DS824_LON DS824_STAGE DS824_WIND DS824_PRES TD9636_LAT TD9636_LON TD9636_STAGE TD9636_WIND TD9636_PRES TD9635_LAT TD9635_LON TD9635_WIND TD9635_PRES TD9635_ROCI NEUMANN_LAT NEUMANN_LON NEUMANN_CLASS NEUMANN_WIND NEUMANN_PRES MLC_LAT MLC_LON MLC_CLASS MLC_WIND MLC_PRES USA_GUST BOM_GUST BOM_GUST_PER REUNION_GUST REUNION_GUST_PER USA_SEAHGT USA_SEARAD_NE USA_SEARAD_SE USA_SEARAD_SW USA_SEARAD_NW STORM_SPEED STORM_DIR
1921276N09146 1921 51 WP MM NOT_NAMED 1921-10-02 22:00:00 NR 9.40000 145.600 main 1293 1293 __________O___ -1 9.40000 145.600 4 7 302
1921276N09146 1921 51 WP MM NOT_NAMED 1921-10-03 00:00:00 NR 9.52697 145.392 main 1306 1306 __________P___ -1 9.52697 145.392 4 7 302
1921276N09146 1921 51 WP MM NOT_NAMED 1921-10-03 03:00:00 NR 9.71970 145.077 main 1332 1332 __________P___ -1 9.71970 145.077 4 7 302
1921276N09146 1921 51 WP MM NOT_NAMED 1921-10-03 06:00:00 NR 9.91859 144.753 main 1359 1361 __________P___ -1 9.91859 144.753 4 8 302
1921276N09146 1921 51 WP MM NOT_NAMED 1921-10-03 09:00:00 NR 10.1275 144.416 main 1388 1388 __________P___ -1 10.1275 144.416 4 8 302
1921276N09146 1921 51 WP MM NOT_NAMED 1921-10-03 10:00:00 NR 10.2000 144.300 main 1401 1401 __________O___ -1 10.2000 144.300 4 8 302
1921276N09146 1921 51 WP MM NOT_NAMED 1921-10-03 12:00:00 NR 10.3496 144.062 main 1416 1429 __________P___ -1 10.3496 144.062 4 8 303
1921276N09146 1921 51 WP MM NOT_NAMED 1921-10-03 15:00:00 NR 10.5803 143.698 main 1458 1458 __________P___ -1 10.5803 143.698 4 8 303
1921276N09146 1921 51 WP MM NOT_NAMED 1921-10-03 18:00:00 NR 10.8104 143.341 main 1490 1490 __________P___ -1 10.8104 143.341 4 8 303
1921276N09146 1921 51 WP MM NOT_NAMED 1921-10-03 21:00:00 NR 11.0305 143.005 main 1508 1508 __________P___ -1 11.0305 143.005 4 8 304
1921276N09146 1921 51 WP MM NOT_NAMED 1921-10-03 22:00:00 NR 11.1000 142.900 main 1515 1511 __________O___ -1 11.1000 142.900 4 7 304
1921276N09146 1921 51 WP MM NOT_NAMED 1921-10-04 00:00:00 NR 11.2279 142.710 main 1518 1518 __________P___ -1 11.2279 142.710 4 6 305
1921276N09146 1921 51 WP MM NOT_NAMED 1921-10-04 03:00:00 NR 11.4073 142.451 main 1532 1528 __________P___ -1 11.4073 142.451 4 6 306
1921276N09146 1921 51 WP MM NOT_NAMED 1921-10-04 06:00:00 NR 11.5773 142.211 main 1543 1540 __________P___ -1 11.5773 142.211 4 6 306
1921276N09146 1921 51 WP MM NOT_NAMED 1921-10-04 09:00:00 NR 11.7441 141.978 main 1548 1556 __________P___ -1 11.7441 141.978 4 6 306
1921276N09146 1921 51 WP MM NOT_NAMED 1921-10-04 10:00:00 NR 11.8000 141.900 main 1556 1553 __________O___ -1 11.8000 141.900 4 6 306
1921276N09146 1921 51 WP MM NOT_NAMED 1921-10-04 12:00:00 NR 11.9034 141.749 main 1560 1560 __________P___ -1 11.9034 141.749 4 5 305
1921276N09146 1921 51 WP MM NOT_NAMED 1921-10-04 15:00:00 NR 12.0582 141.522 main 1572 1567 __________P___ -1 12.0582 141.522 4 6 305
1921276N09146 1921 51 WP MM NOT_NAMED 1921-10-04 18:00:00 NR 12.2268 141.280 main 1574 1574 __________P___ -1 12.2268 141.280 4 6 306
1921276N09146 1921 51 WP MM NOT_NAMED 1921-10-04 21:00:00 NR 12.4248 141.003 main 1582 1582 __________P___ -1 12.4248 141.003 4 7 306
1921276N09146 1921 51 WP MM NOT_NAMED 1921-10-04 22:00:00 NR 12.5000 140.900 main 1589 1585 __________O___ -1 12.5000 140.900 4 8 305
1921276N09146 1921 51 WP MM NOT_NAMED 1921-10-05 00:00:00 NR 12.6611 140.665 main 1602 1592 __________P___ -1 12.6611 140.665 4 9 305
1921276N09146 1921 51 WP MM NOT_NAMED 1921-10-05 03:00:00 NR 12.9339 140.274 main 1592 1553 __________P___ -1 12.9339 140.274 4 10 306
1921276N09146 1921 51 WP MM NOT_NAMED 1921-10-05 06:00:00 NR 13.2414 139.858 main 1553 1506 __________P___ -1 13.2414 139.858 4 10 308
1921276N09146 1921 51 WP MM NOT_NAMED 1921-10-05 09:00:00 NR 13.5805 139.437 main 1506 1497 __________P___ -1 13.5805 139.437 4 11 310
1921276N09146 1921 51 WP MM NOT_NAMED 1921-10-05 10:00:00 NR 13.7000 139.300 main 1497 1470 __________O___ -1 13.7000 139.300 4 11 313
1921276N09146 1921 51 WP MM NOT_NAMED 1921-10-05 12:00:00 NR 13.9412 139.034 main 1470 1437 __________P___ -1 13.9412 139.034 4 11 314
1921276N09146 1921 51 WP MM NOT_NAMED 1921-10-05 15:00:00 NR 14.3281 138.641 main 1437 1410 __________P___ -1 14.3281 138.641 4 11 317
1921276N09146 1921 51 WP MM NOT_NAMED 1921-10-05 18:00:00 NR 14.7370 138.263 main 1412 1379 __________P___ -1 14.7370 138.263 4 11 320
1921276N09146 1921 51 WP MM NOT_NAMED 1921-10-05 21:00:00 NR 15.1584 137.910 main 1381 1373 __________P___ -1 15.1584 137.910 4 11 322
1921276N09146 1921 51 WP MM NOT_NAMED 1921-10-05 22:00:00 NR 15.3000 137.800 main 1373 1357 __________O___ -1 15.3000 137.800 4 10 323
1921276N09146 1921 51 WP MM NOT_NAMED 1921-10-06 00:00:00 NR 15.5748 137.586 main 1360 1338 __________P___ -1 15.5748 137.586 4 10 325
1921276N09146 1921 51 WP MM NOT_NAMED 1921-10-06 03:00:00 NR 15.9935 137.289 main 1342 1325 __________P___ -1 15.9935 137.289 4 10 327
1921276N09146 1921 51 WP MM NOT_NAMED 1921-10-06 06:00:00 NR 16.4198 137.021 main 1325 1317 __________P___ -1 16.4198 137.021 4 10 330
1921276N09146 1921 51 WP MM NOT_NAMED 1921-10-06 09:00:00 NR 16.8537 136.777 main 1325 1315 __________P___ -1 16.8537 136.777 4 10 332
1921276N09146 1921 51 WP MM NOT_NAMED 1921-10-06 10:00:00 NR 17.0000 136.700 main 1319 1313 __________O___ -1 17.0000 136.700 4 10 333
1921276N09146 1921 51 WP MM NOT_NAMED 1921-10-06 12:00:00 NR 17.2995 136.539 main 1313 1313 __________P___ -1 17.2995 136.539 4 10 334
1921276N09146 1921 51 WP MM NOT_NAMED 1921-10-06 15:00:00 NR 17.7552 136.316 main 1318 1314 __________P___ -1 17.7552 136.316 4 10 336
1921276N09146 1921 51 WP MM NOT_NAMED 1921-10-06 18:00:00 NR 18.2103 136.119 main 1320 1320 __________P___ -1 18.2103 136.119 4 10 339
1921276N09146 1921 51 WP MM NOT_NAMED 1921-10-06 21:00:00 NR 18.6555 135.950 main 1330 1330 __________P___ -1 18.6555 135.950 4 9 341
1921276N09146 1921 51 WP MM NOT_NAMED 1921-10-06 22:00:00 NR 18.8000 135.900 main 1336 1333 __________O___ -1 18.8000 135.900 4 9 342
1921276N09146 1921 51 WP MM NOT_NAMED 1921-10-07 00:00:00 NR 19.0806 135.800 main 1345 1342 __________P___ -1 19.0806 135.800 4 9 343
1921276N09146 1921 51 WP MM NOT_NAMED 1921-10-07 03:00:00 NR 19.4891 135.675 main 1356 1333 __________P___ -1 19.4891 135.675 4 8 346
1921276N09146 1921 51 WP MM NOT_NAMED 1921-10-07 06:00:00 NR 19.8853 135.580 main 1333 1287 __________P___ -1 19.8853 135.580 4 8 349
1921276N09146 1921 51 WP MM NOT_NAMED 1921-10-07 09:00:00 NR 20.2725 135.515 main 1287 1277 __________P___ -1 20.2725 135.515 4 8 351
1921276N09146 1921 51 WP MM NOT_NAMED 1921-10-07 10:00:00 NR 20.4000 135.500 main 1277 1256 __________O___ -1 20.4000 135.500 4 8 353
1921276N09146 1921 51 WP MM NOT_NAMED 1921-10-07 12:00:00 NR 20.6452 135.469 main 1256 1211 __________P___ -1 20.6452 135.469 4 7 356
1921276N09146 1921 51 WP MM NOT_NAMED 1921-10-07 15:00:00 NR 21.0064 135.448 main 1211 1173 __________P___ -1 21.0064 135.448 4 7 0
1921276N09146 1921 51 WP MM NOT_NAMED 1921-10-07 18:00:00 NR 21.3738 135.455 main 1173 1132 __________P___ -1 21.3738 135.455 4 8 2
1921276N09146 1921 51 WP MM NOT_NAMED 1921-10-07 21:00:00 NR 21.7628 135.485 main 1132 1122 __________P___ -1 21.7628 135.485 4 8 5
1921276N09146 1921 51 WP MM NOT_NAMED 1921-10-07 22:00:00 NR 21.9000 135.500 main 1122 1092 __________O___ -1 21.9000 135.500 4 9 5
1921276N09146 1921 51 WP MM NOT_NAMED 1921-10-08 00:00:00 NR 22.1964 135.525 main 1092 1046 __________P___ -1 22.1964 135.525 4 9 6
1921276N09146 1921 51 WP MM NOT_NAMED 1921-10-08 03:00:00 NR 22.6664 135.581 main 1046 1001 __________P___ -1 22.6664 135.581 4 10 7
1921276N09146 1921 51 WP MM NOT_NAMED 1921-10-08 06:00:00 NR 23.1528 135.660 main 1001 962 __________P___ -1 23.1528 135.660 4 10 10
1921276N09146 1921 51 WP MM NOT_NAMED 1921-10-08 09:00:00 NR 23.6401 135.761 main 967 948 __________P___ -1 23.6401 135.761 4 10 11
1921276N09146 1921 51 WP MM NOT_NAMED 1921-10-08 10:00:00 NR 23.8000 135.800 main 948 924 __________O___ -1 23.8000 135.800 4 9 12
1921276N09146 1921 51 WP MM NOT_NAMED 1921-10-08 12:00:00 NR 24.1004 135.873 main 924 892 __________P___ -1 24.1004 135.873 4 9 14
1921276N09146 1921 51 WP MM NOT_NAMED 1921-10-08 15:00:00 NR 24.5446 136.000 main 892 849 __________P___ -1 24.5446 136.000 4 9 16
1921276N09146 1921 51 WP MM NOT_NAMED 1921-10-08 18:00:00 NR 24.9895 136.153 main 854 823 __________P___ -1 24.9895 136.153 4 10 18
1921276N09146 1921 51 WP MM NOT_NAMED 1921-10-08 21:00:00 NR 25.4445 136.333 main 823 810 __________P___ -1 25.4445 136.333 4 10 20
1921276N09146 1921 51 WP MM NOT_NAMED 1921-10-08 22:00:00 NR 25.6000 136.400 main 810 789 __________O___ -1 25.6000 136.400 4 10 21
1921276N09146 1921 51 WP MM NOT_NAMED 1921-10-09 00:00:00 NR 25.9272 136.541 main 789 766 __________P___ -1 25.9272 136.541 4 11 22
1921276N09146 1921 51 WP MM NOT_NAMED 1921-10-09 03:00:00 NR 26.4307 136.778 main 766 734 __________P___ -1 26.4307 136.778 4 11 24
1921276N09146 1921 51 WP MM NOT_NAMED 1921-10-09 06:00:00 NR 26.9383 137.037 main 734 684 __________P___ -1 26.9383 137.037 4 11 25
1921276N09146 1921 51 WP MM NOT_NAMED 1921-10-09 09:00:00 NR 27.4376 137.308 main 684 665 __________P___ -1 27.4376 137.308 4 11 26
1921276N09146 1921 51 WP MM NOT_NAMED 1921-10-09 10:00:00 NR 27.6000 137.400 main 665 637 __________O___ -1 27.6000 137.400 4 11 27
1921276N09146 1921 51 WP MM NOT_NAMED 1921-10-09 12:00:00 NR 27.9171 137.583 main 637 589 __________P___ -1 27.9171 137.583 4 11 28
1921276N09146 1921 51 WP MM NOT_NAMED 1921-10-09 15:00:00 NR 28.3759 137.857 main 592 557 __________P___ -1 28.3759 137.857 4 10 28
1921276N09146 1921 51 WP MM NOT_NAMED 1921-10-09 18:00:00 NR 28.8201 138.132 main 557 519 __________P___ -1 28.8201 138.132 4 10 29
1921276N09146 1921 51 WP MM NOT_NAMED 1921-10-09 21:00:00 NR 29.2557 138.408 main 519 514 __________P___ -1 29.2557 138.408 4 10 29
1921276N09146 1921 51 WP MM NOT_NAMED 1921-10-09 22:00:00 NR 29.4000 138.500 main 514 __________O___ -1 29.4000 138.500 7 10 28

Digital Typhoon Data and Search

About IBTrACS Database

This database is a web-friendly format of International Best Track Archive for Climate Stewardship (IBTrACS), a global best track data archive curated by NOAA dating back to 1842.

Updated: 2021-12-01